sensor_id;sensor_type;location;lat;lon;timestamp;temperature;humidity
77700;DHT22;66867;42.658;23.320;2023-06-22T00:00:00;20.3;75
77700;DHT22;66867;42.658;23.320;2023-06-22T00:01:00;20.3;75
77700;DHT22;66867;42.658;23.320;2023-06-22T00:02:00;20.3;75
77700;DHT22;66867;42.658;23.320;2023-06-22T00:03:00;20.3;75
77700;DHT22;66867;42.658;23.320;2023-06-22T00:04:00;20.3;75
77700;DHT22;66867;42.658;23.320;2023-06-22T00:05:00;20.2;75
77700;DHT22;66867;42.658;23.320;2023-06-22T00:06:00;20.2;75
77700;DHT22;66867;42.658;23.320;2023-06-22T00:07:00;20.2;75
77700;DHT22;66867;42.658;23.320;2023-06-22T00:08:03;20.2;75
77700;DHT22;66867;42.658;23.320;2023-06-22T00:09:00;20.3;75
77700;DHT22;66867;42.658;23.320;2023-06-22T00:10:00;20.3;75
77700;DHT22;66867;42.658;23.320;2023-06-22T00:11:00;20.2;75
77700;DHT22;66867;42.658;23.320;2023-06-22T00:12:00;20.2;75
77700;DHT22;66867;42.658;23.320;2023-06-22T00:13:00;20.2;75
77700;DHT22;66867;42.658;23.320;2023-06-22T00:14:00;20.2;75
77700;DHT22;66867;42.658;23.320;2023-06-22T00:15:00;20.2;76
77700;DHT22;66867;42.658;23.320;2023-06-22T00:16:00;20.2;75
77700;DHT22;66867;42.658;23.320;2023-06-22T00:17:00;20.2;75
77700;DHT22;66867;42.658;23.320;2023-06-22T00:18:00;20.2;75
77700;DHT22;66867;42.658;23.320;2023-06-22T00:19:00;20.2;76
77700;DHT22;66867;42.658;23.320;2023-06-22T00:20:00;20.2;76
77700;DHT22;66867;42.658;23.320;2023-06-22T00:21:00;20.2;76
77700;DHT22;66867;42.658;23.320;2023-06-22T00:22:00;20.2;75
77700;DHT22;66867;42.658;23.320;2023-06-22T00:23:00;20.2;75
77700;DHT22;66867;42.658;23.320;2023-06-22T00:24:00;20.2;75
77700;DHT22;66867;42.658;23.320;2023-06-22T00:25:00;20.2;74
77700;DHT22;66867;42.658;23.320;2023-06-22T00:26:00;20.2;74
77700;DHT22;66867;42.658;23.320;2023-06-22T00:27:00;20.2;75
77700;DHT22;66867;42.658;23.320;2023-06-22T00:28:00;20.1;75
77700;DHT22;66867;42.658;23.320;2023-06-22T00:29:00;20.1;75
77700;DHT22;66867;42.658;23.320;2023-06-22T00:30:00;20.1;75
77700;DHT22;66867;42.658;23.320;2023-06-22T00:31:00;20.0;75
77700;DHT22;66867;42.658;23.320;2023-06-22T00:32:00;20.1;75
77700;DHT22;66867;42.658;23.320;2023-06-22T00:33:00;20.0;75
77700;DHT22;66867;42.658;23.320;2023-06-22T00:34:00;20.0;75
77700;DHT22;66867;42.658;23.320;2023-06-22T00:35:00;20.0;75
77700;DHT22;66867;42.658;23.320;2023-06-22T00:36:00;20.0;75
77700;DHT22;66867;42.658;23.320;2023-06-22T00:37:00;20.0;75
77700;DHT22;66867;42.658;23.320;2023-06-22T00:38:00;20.0;76
77700;DHT22;66867;42.658;23.320;2023-06-22T00:39:00;20.0;76
77700;DHT22;66867;42.658;23.320;2023-06-22T00:40:00;20.0;76
77700;DHT22;66867;42.658;23.320;2023-06-22T00:41:00;20.0;76
77700;DHT22;66867;42.658;23.320;2023-06-22T00:42:00;19.9;76
77700;DHT22;66867;42.658;23.320;2023-06-22T00:43:00;19.9;76
77700;DHT22;66867;42.658;23.320;2023-06-22T00:44:00;19.9;76
77700;DHT22;66867;42.658;23.320;2023-06-22T00:45:00;19.9;76
77700;DHT22;66867;42.658;23.320;2023-06-22T00:46:00;19.9;76
77700;DHT22;66867;42.658;23.320;2023-06-22T00:47:00;19.9;76
77700;DHT22;66867;42.658;23.320;2023-06-22T00:48:00;19.9;76
77700;DHT22;66867;42.658;23.320;2023-06-22T00:49:00;19.9;76
77700;DHT22;66867;42.658;23.320;2023-06-22T00:50:00;19.9;76
77700;DHT22;66867;42.658;23.320;2023-06-22T00:51:00;19.9;76
77700;DHT22;66867;42.658;23.320;2023-06-22T00:52:01;19.9;76
77700;DHT22;66867;42.658;23.320;2023-06-22T00:53:01;19.9;77
77700;DHT22;66867;42.658;23.320;2023-06-22T00:54:00;19.9;77
77700;DHT22;66867;42.658;23.320;2023-06-22T00:55:01;19.8;77
77700;DHT22;66867;42.658;23.320;2023-06-22T00:56:00;19.8;77
77700;DHT22;66867;42.658;23.320;2023-06-22T00:57:00;19.8;77
77700;DHT22;66867;42.658;23.320;2023-06-22T00:58:00;19.8;77
77700;DHT22;66867;42.658;23.320;2023-06-22T00:59:00;19.8;77
77700;DHT22;66867;42.658;23.320;2023-06-22T01:00:00;19.8;77
77700;DHT22;66867;42.658;23.320;2023-06-22T01:01:00;19.8;77
77700;DHT22;66867;42.658;23.320;2023-06-22T01:02:00;19.8;77
77700;DHT22;66867;42.658;23.320;2023-06-22T01:03:01;19.8;77
77700;DHT22;66867;42.658;23.320;2023-06-22T01:04:00;19.8;77
77700;DHT22;66867;42.658;23.320;2023-06-22T01:05:00;19.8;77
77700;DHT22;66867;42.658;23.320;2023-06-22T01:06:02;19.8;77
77700;DHT22;66867;42.658;23.320;2023-06-22T01:08:04;19.8;77
77700;DHT22;66867;42.658;23.320;2023-06-22T01:09:02;19.8;77
77700;DHT22;66867;42.658;23.320;2023-06-22T01:10:03;19.7;77
77700;DHT22;66867;42.658;23.320;2023-06-22T01:11:01;19.7;77
77700;DHT22;66867;42.658;23.320;2023-06-22T01:12:01;19.7;77
77700;DHT22;66867;42.658;23.320;2023-06-22T01:13:02;19.7;77
77700;DHT22;66867;42.658;23.320;2023-06-22T01:14:04;19.6;77
77700;DHT22;66867;42.658;23.320;2023-06-22T01:15:02;19.6;77
77700;DHT22;66867;42.658;23.320;2023-06-22T01:16:02;19.6;77
77700;DHT22;66867;42.658;23.320;2023-06-22T01:17:00;19.6;77
77700;DHT22;66867;42.658;23.320;2023-06-22T01:18:00;19.6;77
77700;DHT22;66867;42.658;23.320;2023-06-22T01:19:01;19.6;77
77700;DHT22;66867;42.658;23.320;2023-06-22T01:20:00;19.6;78
77700;DHT22;66867;42.658;23.320;2023-06-22T01:21:00;19.6;78
77700;DHT22;66867;42.658;23.320;2023-06-22T01:22:00;19.6;78
77700;DHT22;66867;42.658;23.320;2023-06-22T01:23:03;19.6;78
77700;DHT22;66867;42.658;23.320;2023-06-22T01:27:05;19.6;78
77700;DHT22;66867;42.658;23.320;2023-06-22T01:28:03;19.6;78
77700;DHT22;66867;42.658;23.320;2023-06-22T01:29:00;19.6;77
77700;DHT22;66867;42.658;23.320;2023-06-22T01:30:00;19.6;76
77700;DHT22;66867;42.658;23.320;2023-06-22T01:31:00;19.6;76
77700;DHT22;66867;42.658;23.320;2023-06-22T01:32:00;19.6;76
77700;DHT22;66867;42.658;23.320;2023-06-22T01:33:00;19.6;77
77700;DHT22;66867;42.658;23.320;2023-06-22T01:34:01;19.6;77
77700;DHT22;66867;42.658;23.320;2023-06-22T01:35:01;19.6;77
77700;DHT22;66867;42.658;23.320;2023-06-22T01:36:00;19.6;78
77700;DHT22;66867;42.658;23.320;2023-06-22T01:37:00;19.7;78
77700;DHT22;66867;42.658;23.320;2023-06-22T01:38:00;19.6;78
77700;DHT22;66867;42.658;23.320;2023-06-22T01:39:00;19.6;78
77700;DHT22;66867;42.658;23.320;2023-06-22T01:40:00;19.6;78
77700;DHT22;66867;42.658;23.320;2023-06-22T01:41:00;19.6;78
77700;DHT22;66867;42.658;23.320;2023-06-22T01:42:00;19.6;78
77700;DHT22;66867;42.658;23.320;2023-06-22T01:43:00;19.5;78
77700;DHT22;66867;42.658;23.320;2023-06-22T01:44:00;19.5;78
77700;DHT22;66867;42.658;23.320;2023-06-22T01:45:00;19.5;78
77700;DHT22;66867;42.658;23.320;2023-06-22T01:46:00;19.5;78
77700;DHT22;66867;42.658;23.320;2023-06-22T01:47:00;19.5;78
77700;DHT22;66867;42.658;23.320;2023-06-22T01:48:00;19.5;78
77700;DHT22;66867;42.658;23.320;2023-06-22T01:49:01;19.5;78
77700;DHT22;66867;42.658;23.320;2023-06-22T01:50:00;19.5;78
77700;DHT22;66867;42.658;23.320;2023-06-22T01:51:00;19.5;78
77700;DHT22;66867;42.658;23.320;2023-06-22T01:52:00;19.5;78
77700;DHT22;66867;42.658;23.320;2023-06-22T01:53:00;19.5;78
77700;DHT22;66867;42.658;23.320;2023-06-22T01:54:01;19.5;78
77700;DHT22;66867;42.658;23.320;2023-06-22T01:55:00;19.5;78
77700;DHT22;66867;42.658;23.320;2023-06-22T01:56:00;19.5;78
77700;DHT22;66867;42.658;23.320;2023-06-22T01:57:00;19.5;78
77700;DHT22;66867;42.658;23.320;2023-06-22T01:58:00;19.5;78
77700;DHT22;66867;42.658;23.320;2023-06-22T01:59:17;19.5;78
77700;DHT22;66867;42.658;23.320;2023-06-22T02:00:04;19.4;78
77700;DHT22;66867;42.658;23.320;2023-06-22T02:01:05;19.4;79
77700;DHT22;66867;42.658;23.320;2023-06-22T02:02:07;19.4;79
77700;DHT22;66867;42.658;23.320;2023-06-22T02:03:01;19.5;79
77700;DHT22;66867;42.658;23.320;2023-06-22T02:04:04;19.4;79
77700;DHT22;66867;42.658;23.320;2023-06-22T02:05:03;19.5;79
77700;DHT22;66867;42.658;23.320;2023-06-22T02:06:03;19.5;79
77700;DHT22;66867;42.658;23.320;2023-06-22T02:07:00;19.5;79
77700;DHT22;66867;42.658;23.320;2023-06-22T02:08:02;19.5;79
77700;DHT22;66867;42.658;23.320;2023-06-22T02:09:01;19.4;79
77700;DHT22;66867;42.658;23.320;2023-06-22T02:10:00;19.4;80
77700;DHT22;66867;42.658;23.320;2023-06-22T02:11:00;19.4;80
77700;DHT22;66867;42.658;23.320;2023-06-22T02:12:00;19.4;80
77700;DHT22;66867;42.658;23.320;2023-06-22T02:13:01;19.4;80
77700;DHT22;66867;42.658;23.320;2023-06-22T02:14:00;19.3;80
77700;DHT22;66867;42.658;23.320;2023-06-22T02:15:00;19.3;80
77700;DHT22;66867;42.658;23.320;2023-06-22T02:16:00;19.4;79
77700;DHT22;66867;42.658;23.320;2023-06-22T02:17:00;19.4;79
77700;DHT22;66867;42.658;23.320;2023-06-22T02:18:00;19.4;79
77700;DHT22;66867;42.658;23.320;2023-06-22T02:19:00;19.4;79
77700;DHT22;66867;42.658;23.320;2023-06-22T02:20:02;19.4;80
77700;DHT22;66867;42.658;23.320;2023-06-22T02:21:00;19.4;80
77700;DHT22;66867;42.658;23.320;2023-06-22T02:22:00;19.4;80
77700;DHT22;66867;42.658;23.320;2023-06-22T02:23:00;19.4;79
77700;DHT22;66867;42.658;23.320;2023-06-22T02:24:00;19.4;80
77700;DHT22;66867;42.658;23.320;2023-06-22T02:25:00;19.4;80
77700;DHT22;66867;42.658;23.320;2023-06-22T02:26:00;19.4;80
77700;DHT22;66867;42.658;23.320;2023-06-22T02:27:00;19.4;79
77700;DHT22;66867;42.658;23.320;2023-06-22T02:28:00;19.4;79
77700;DHT22;66867;42.658;23.320;2023-06-22T02:29:00;19.4;79
77700;DHT22;66867;42.658;23.320;2023-06-22T02:30:00;19.4;79
77700;DHT22;66867;42.658;23.320;2023-06-22T02:31:00;19.4;79
77700;DHT22;66867;42.658;23.320;2023-06-22T02:32:00;19.4;79
77700;DHT22;66867;42.658;23.320;2023-06-22T02:33:00;19.4;80
77700;DHT22;66867;42.658;23.320;2023-06-22T02:34:00;19.4;80
77700;DHT22;66867;42.658;23.320;2023-06-22T02:35:00;19.4;80
77700;DHT22;66867;42.658;23.320;2023-06-22T02:36:00;19.4;80
77700;DHT22;66867;42.658;23.320;2023-06-22T02:37:00;19.4;80
77700;DHT22;66867;42.658;23.320;2023-06-22T02:38:00;19.4;80
77700;DHT22;66867;42.658;23.320;2023-06-22T02:39:00;19.4;80
77700;DHT22;66867;42.658;23.320;2023-06-22T02:40:00;19.4;80
77700;DHT22;66867;42.658;23.320;2023-06-22T02:41:00;19.3;80
77700;DHT22;66867;42.658;23.320;2023-06-22T02:42:00;19.3;80
77700;DHT22;66867;42.658;23.320;2023-06-22T02:48:00;19.3;80
77700;DHT22;66867;42.658;23.320;2023-06-22T02:49:00;19.3;80
77700;DHT22;66867;42.658;23.320;2023-06-22T02:50:00;19.3;80
77700;DHT22;66867;42.658;23.320;2023-06-22T02:51:00;19.3;79
77700;DHT22;66867;42.658;23.320;2023-06-22T02:52:00;19.3;79
77700;DHT22;66867;42.658;23.320;2023-06-22T02:53:00;19.3;79
77700;DHT22;66867;42.658;23.320;2023-06-22T02:54:00;19.3;80
77700;DHT22;66867;42.658;23.320;2023-06-22T02:55:00;19.3;80
77700;DHT22;66867;42.658;23.320;2023-06-22T02:56:01;19.3;80
77700;DHT22;66867;42.658;23.320;2023-06-22T02:57:00;19.3;80
77700;DHT22;66867;42.658;23.320;2023-06-22T02:58:00;19.2;80
77700;DHT22;66867;42.658;23.320;2023-06-22T02:59:00;19.2;80
77700;DHT22;66867;42.658;23.320;2023-06-22T03:00:02;19.2;80
77700;DHT22;66867;42.658;23.320;2023-06-22T03:01:00;19.2;80
77700;DHT22;66867;42.658;23.320;2023-06-22T03:02:00;19.2;80
77700;DHT22;66867;42.658;23.320;2023-06-22T03:03:00;19.2;79
77700;DHT22;66867;42.658;23.320;2023-06-22T03:04:00;19.2;80
77700;DHT22;66867;42.658;23.320;2023-06-22T03:05:00;19.2;80
77700;DHT22;66867;42.658;23.320;2023-06-22T03:06:00;19.2;79
77700;DHT22;66867;42.658;23.320;2023-06-22T03:07:00;19.2;79
77700;DHT22;66867;42.658;23.320;2023-06-22T03:08:00;19.2;80
77700;DHT22;66867;42.658;23.320;2023-06-22T03:09:01;19.2;80
77700;DHT22;66867;42.658;23.320;2023-06-22T03:10:00;19.2;80
77700;DHT22;66867;42.658;23.320;2023-06-22T03:11:00;19.2;80
77700;DHT22;66867;42.658;23.320;2023-06-22T03:12:00;19.2;80
77700;DHT22;66867;42.658;23.320;2023-06-22T03:13:00;19.2;80
77700;DHT22;66867;42.658;23.320;2023-06-22T03:14:00;19.2;80
77700;DHT22;66867;42.658;23.320;2023-06-22T03:15:00;19.2;80
77700;DHT22;66867;42.658;23.320;2023-06-22T03:16:00;19.2;80
77700;DHT22;66867;42.658;23.320;2023-06-22T03:17:00;19.1;80
77700;DHT22;66867;42.658;23.320;2023-06-22T03:18:00;19.1;80
77700;DHT22;66867;42.658;23.320;2023-06-22T03:19:00;19.1;80
77700;DHT22;66867;42.658;23.320;2023-06-22T03:20:00;19.2;80
77700;DHT22;66867;42.658;23.320;2023-06-22T03:21:00;19.2;80
77700;DHT22;66867;42.658;23.320;2023-06-22T03:22:00;19.2;80
77700;DHT22;66867;42.658;23.320;2023-06-22T03:23:00;19.2;80
77700;DHT22;66867;42.658;23.320;2023-06-22T03:24:00;19.2;80
77700;DHT22;66867;42.658;23.320;2023-06-22T03:25:00;19.2;80
77700;DHT22;66867;42.658;23.320;2023-06-22T03:26:00;19.2;80
77700;DHT22;66867;42.658;23.320;2023-06-22T03:27:00;19.1;80
77700;DHT22;66867;42.658;23.320;2023-06-22T03:28:00;19.1;81
77700;DHT22;66867;42.658;23.320;2023-06-22T03:29:00;19.1;81
77700;DHT22;66867;42.658;23.320;2023-06-22T03:30:00;19.1;81
77700;DHT22;66867;42.658;23.320;2023-06-22T03:31:00;19.1;81
77700;DHT22;66867;42.658;23.320;2023-06-22T03:32:00;19.1;81
77700;DHT22;66867;42.658;23.320;2023-06-22T03:33:00;19.2;81
77700;DHT22;66867;42.658;23.320;2023-06-22T03:34:00;19.2;81
77700;DHT22;66867;42.658;23.320;2023-06-22T03:35:00;19.2;81
77700;DHT22;66867;42.658;23.320;2023-06-22T03:36:00;19.2;81
77700;DHT22;66867;42.658;23.320;2023-06-22T03:37:00;19.1;81
77700;DHT22;66867;42.658;23.320;2023-06-22T03:38:00;19.1;80
77700;DHT22;66867;42.658;23.320;2023-06-22T03:39:00;19.1;80
77700;DHT22;66867;42.658;23.320;2023-06-22T03:40:00;19.1;80
77700;DHT22;66867;42.658;23.320;2023-06-22T03:41:00;19.2;80
77700;DHT22;66867;42.658;23.320;2023-06-22T03:42:00;19.1;80
77700;DHT22;66867;42.658;23.320;2023-06-22T03:43:00;19.1;80
77700;DHT22;66867;42.658;23.320;2023-06-22T03:44:00;19.2;81
77700;DHT22;66867;42.658;23.320;2023-06-22T03:45:00;19.2;81
77700;DHT22;66867;42.658;23.320;2023-06-22T03:46:00;19.2;81
77700;DHT22;66867;42.658;23.320;2023-06-22T03:47:00;19.2;81
77700;DHT22;66867;42.658;23.320;2023-06-22T03:48:00;19.2;81
77700;DHT22;66867;42.658;23.320;2023-06-22T03:49:00;19.2;81
77700;DHT22;66867;42.658;23.320;2023-06-22T03:50:00;19.2;82
77700;DHT22;66867;42.658;23.320;2023-06-22T03:51:00;19.3;81
77700;DHT22;66867;42.658;23.320;2023-06-22T03:52:01;19.3;81
77700;DHT22;66867;42.658;23.320;2023-06-22T03:53:00;19.3;81
77700;DHT22;66867;42.658;23.320;2023-06-22T03:54:00;19.3;82
77700;DHT22;66867;42.658;23.320;2023-06-22T03:55:00;19.3;82
77700;DHT22;66867;42.658;23.320;2023-06-22T03:56:00;19.3;82
77700;DHT22;66867;42.658;23.320;2023-06-22T03:57:00;19.3;82
77700;DHT22;66867;42.658;23.320;2023-06-22T03:58:00;19.3;82
77700;DHT22;66867;42.658;23.320;2023-06-22T03:59:00;19.4;82
77700;DHT22;66867;42.658;23.320;2023-06-22T04:00:00;19.4;82
77700;DHT22;66867;42.658;23.320;2023-06-22T04:01:00;19.4;82
77700;DHT22;66867;42.658;23.320;2023-06-22T04:02:00;19.4;82
77700;DHT22;66867;42.658;23.320;2023-06-22T04:03:00;19.4;82
77700;DHT22;66867;42.658;23.320;2023-06-22T04:04:00;19.4;82
77700;DHT22;66867;42.658;23.320;2023-06-22T04:05:00;19.4;82
77700;DHT22;66867;42.658;23.320;2023-06-22T04:06:00;19.4;82
77700;DHT22;66867;42.658;23.320;2023-06-22T04:07:00;19.4;82
77700;DHT22;66867;42.658;23.320;2023-06-22T04:08:00;19.4;82
77700;DHT22;66867;42.658;23.320;2023-06-22T04:09:00;19.4;82
77700;DHT22;66867;42.658;23.320;2023-06-22T04:10:00;19.5;82
77700;DHT22;66867;42.658;23.320;2023-06-22T04:11:00;19.5;82
77700;DHT22;66867;42.658;23.320;2023-06-22T04:12:01;19.5;81
77700;DHT22;66867;42.658;23.320;2023-06-22T04:13:00;19.5;81
77700;DHT22;66867;42.658;23.320;2023-06-22T04:14:00;19.6;81
77700;DHT22;66867;42.658;23.320;2023-06-22T04:15:00;19.5;81
77700;DHT22;66867;42.658;23.320;2023-06-22T04:16:00;19.6;81
77700;DHT22;66867;42.658;23.320;2023-06-22T04:17:01;19.6;81
77700;DHT22;66867;42.658;23.320;2023-06-22T04:18:00;19.6;80
77700;DHT22;66867;42.658;23.320;2023-06-22T04:19:00;19.6;81
77700;DHT22;66867;42.658;23.320;2023-06-22T04:20:00;19.6;81
77700;DHT22;66867;42.658;23.320;2023-06-22T04:21:01;19.6;81
77700;DHT22;66867;42.658;23.320;2023-06-22T04:22:00;19.7;81
77700;DHT22;66867;42.658;23.320;2023-06-22T04:23:00;19.7;81
77700;DHT22;66867;42.658;23.320;2023-06-22T04:24:00;19.7;80
77700;DHT22;66867;42.658;23.320;2023-06-22T04:25:00;19.7;81
77700;DHT22;66867;42.658;23.320;2023-06-22T04:26:00;19.7;81
77700;DHT22;66867;42.658;23.320;2023-06-22T04:27:00;19.7;81
77700;DHT22;66867;42.658;23.320;2023-06-22T04:28:00;19.7;81
77700;DHT22;66867;42.658;23.320;2023-06-22T04:29:00;19.7;81
77700;DHT22;66867;42.658;23.320;2023-06-22T04:30:00;19.8;81
77700;DHT22;66867;42.658;23.320;2023-06-22T04:31:01;19.7;81
77700;DHT22;66867;42.658;23.320;2023-06-22T04:32:00;19.7;81
77700;DHT22;66867;42.658;23.320;2023-06-22T04:33:00;19.7;81
77700;DHT22;66867;42.658;23.320;2023-06-22T04:34:00;19.7;82
77700;DHT22;66867;42.658;23.320;2023-06-22T04:35:00;19.8;82
77700;DHT22;66867;42.658;23.320;2023-06-22T04:36:00;19.8;81
77700;DHT22;66867;42.658;23.320;2023-06-22T04:37:00;19.8;81
77700;DHT22;66867;42.658;23.320;2023-06-22T04:38:00;19.8;81
77700;DHT22;66867;42.658;23.320;2023-06-22T04:39:00;19.9;81
77700;DHT22;66867;42.658;23.320;2023-06-22T04:40:00;19.9;81
77700;DHT22;66867;42.658;23.320;2023-06-22T04:41:00;19.9;81
77700;DHT22;66867;42.658;23.320;2023-06-22T04:42:00;20.0;80
77700;DHT22;66867;42.658;23.320;2023-06-22T04:43:00;20.0;80
77700;DHT22;66867;42.658;23.320;2023-06-22T04:44:00;20.0;80
77700;DHT22;66867;42.658;23.320;2023-06-22T04:45:00;20.0;80
77700;DHT22;66867;42.658;23.320;2023-06-22T04:46:00;20.1;80
77700;DHT22;66867;42.658;23.320;2023-06-22T04:47:01;20.1;80
77700;DHT22;66867;42.658;23.320;2023-06-22T04:48:00;20.1;80
77700;DHT22;66867;42.658;23.320;2023-06-22T04:49:00;20.1;79
77700;DHT22;66867;42.658;23.320;2023-06-22T04:51:01;20.2;79
77700;DHT22;66867;42.658;23.320;2023-06-22T04:52:00;20.2;79
77700;DHT22;66867;42.658;23.320;2023-06-22T04:53:00;20.2;79
77700;DHT22;66867;42.658;23.320;2023-06-22T04:54:00;20.2;79
77700;DHT22;66867;42.658;23.320;2023-06-22T04:55:00;20.3;79
77700;DHT22;66867;42.658;23.320;2023-06-22T04:56:00;20.3;78
77700;DHT22;66867;42.658;23.320;2023-06-22T04:57:01;20.3;78
77700;DHT22;66867;42.658;23.320;2023-06-22T04:58:00;20.3;78
77700;DHT22;66867;42.658;23.320;2023-06-22T04:59:00;20.3;78
77700;DHT22;66867;42.658;23.320;2023-06-22T05:00:00;20.3;78
77700;DHT22;66867;42.658;23.320;2023-06-22T05:01:00;20.4;79
77700;DHT22;66867;42.658;23.320;2023-06-22T05:02:02;20.4;79
77700;DHT22;66867;42.658;23.320;2023-06-22T05:03:00;20.4;79
77700;DHT22;66867;42.658;23.320;2023-06-22T05:04:00;20.4;79
77700;DHT22;66867;42.658;23.320;2023-06-22T05:05:00;20.4;79
77700;DHT22;66867;42.658;23.320;2023-06-22T05:06:00;20.4;79
77700;DHT22;66867;42.658;23.320;2023-06-22T05:07:00;20.5;79
77700;DHT22;66867;42.658;23.320;2023-06-22T05:08:00;20.5;79
77700;DHT22;66867;42.658;23.320;2023-06-22T05:09:00;20.5;79
77700;DHT22;66867;42.658;23.320;2023-06-22T05:10:01;20.6;79
77700;DHT22;66867;42.658;23.320;2023-06-22T05:11:00;20.6;79
77700;DHT22;66867;42.658;23.320;2023-06-22T05:12:00;20.6;79
77700;DHT22;66867;42.658;23.320;2023-06-22T05:13:00;20.7;79
77700;DHT22;66867;42.658;23.320;2023-06-22T05:14:00;20.7;79
77700;DHT22;66867;42.658;23.320;2023-06-22T05:15:00;20.7;79
77700;DHT22;66867;42.658;23.320;2023-06-22T05:16:00;20.8;79
77700;DHT22;66867;42.658;23.320;2023-06-22T05:17:00;20.8;79
77700;DHT22;66867;42.658;23.320;2023-06-22T05:18:00;20.9;78
77700;DHT22;66867;42.658;23.320;2023-06-22T05:19:00;20.9;78
77700;DHT22;66867;42.658;23.320;2023-06-22T05:20:00;20.8;78
77700;DHT22;66867;42.658;23.320;2023-06-22T05:21:00;20.9;78
77700;DHT22;66867;42.658;23.320;2023-06-22T05:22:00;20.9;78
77700;DHT22;66867;42.658;23.320;2023-06-22T05:23:00;20.9;78
77700;DHT22;66867;42.658;23.320;2023-06-22T05:24:00;21.0;78
77700;DHT22;66867;42.658;23.320;2023-06-22T05:25:00;21.0;78
77700;DHT22;66867;42.658;23.320;2023-06-22T05:26:00;21.1;78
77700;DHT22;66867;42.658;23.320;2023-06-22T05:27:00;21.1;78
77700;DHT22;66867;42.658;23.320;2023-06-22T05:28:00;21.1;77
77700;DHT22;66867;42.658;23.320;2023-06-22T05:29:00;21.2;77
77700;DHT22;66867;42.658;23.320;2023-06-22T05:30:00;21.2;77
77700;DHT22;66867;42.658;23.320;2023-06-22T05:31:00;21.2;77
77700;DHT22;66867;42.658;23.320;2023-06-22T05:32:00;21.2;77
77700;DHT22;66867;42.658;23.320;2023-06-22T05:41:00;21.6;76
77700;DHT22;66867;42.658;23.320;2023-06-22T05:42:00;21.6;76
77700;DHT22;66867;42.658;23.320;2023-06-22T05:43:00;21.6;77
77700;DHT22;66867;42.658;23.320;2023-06-22T05:44:00;21.6;77
77700;DHT22;66867;42.658;23.320;2023-06-22T05:45:00;21.7;77
77700;DHT22;66867;42.658;23.320;2023-06-22T05:46:00;21.8;76
77700;DHT22;66867;42.658;23.320;2023-06-22T05:47:00;21.8;76
77700;DHT22;66867;42.658;23.320;2023-06-22T05:48:00;21.8;76
77700;DHT22;66867;42.658;23.320;2023-06-22T05:50:00;21.8;76
77700;DHT22;66867;42.658;23.320;2023-06-22T05:51:00;21.9;76
77700;DHT22;66867;42.658;23.320;2023-06-22T05:52:00;22.0;76
77700;DHT22;66867;42.658;23.320;2023-06-22T05:53:00;22.0;76
77700;DHT22;66867;42.658;23.320;2023-06-22T05:54:00;22.0;76
77700;DHT22;66867;42.658;23.320;2023-06-22T05:55:01;22.0;75
77700;DHT22;66867;42.658;23.320;2023-06-22T05:56:00;22.0;75
77700;DHT22;66867;42.658;23.320;2023-06-22T05:57:00;22.1;74
77700;DHT22;66867;42.658;23.320;2023-06-22T05:58:00;22.1;74
77700;DHT22;66867;42.658;23.320;2023-06-22T05:59:00;22.2;74
77700;DHT22;66867;42.658;23.320;2023-06-22T06:00:00;22.2;74
77700;DHT22;66867;42.658;23.320;2023-06-22T06:01:00;22.2;73
77700;DHT22;66867;42.658;23.320;2023-06-22T06:02:00;22.3;73
77700;DHT22;66867;42.658;23.320;2023-06-22T06:03:00;22.3;73
77700;DHT22;66867;42.658;23.320;2023-06-22T06:04:00;22.3;73
77700;DHT22;66867;42.658;23.320;2023-06-22T06:05:00;22.4;73
77700;DHT22;66867;42.658;23.320;2023-06-22T06:06:00;22.4;73
77700;DHT22;66867;42.658;23.320;2023-06-22T06:07:00;22.4;73
77700;DHT22;66867;42.658;23.320;2023-06-22T06:08:00;22.5;74
77700;DHT22;66867;42.658;23.320;2023-06-22T06:09:00;22.5;74
77700;DHT22;66867;42.658;23.320;2023-06-22T06:10:00;22.6;74
77700;DHT22;66867;42.658;23.320;2023-06-22T06:11:00;22.6;74
77700;DHT22;66867;42.658;23.320;2023-06-22T06:12:00;22.7;73
77700;DHT22;66867;42.658;23.320;2023-06-22T06:13:00;22.7;72
77700;DHT22;66867;42.658;23.320;2023-06-22T06:14:00;22.7;73
77700;DHT22;66867;42.658;23.320;2023-06-22T06:15:00;22.7;73
77700;DHT22;66867;42.658;23.320;2023-06-22T06:16:00;22.8;72
77700;DHT22;66867;42.658;23.320;2023-06-22T06:17:00;22.8;72
77700;DHT22;66867;42.658;23.320;2023-06-22T06:18:00;22.8;72
77700;DHT22;66867;42.658;23.320;2023-06-22T06:19:00;22.9;72
77700;DHT22;66867;42.658;23.320;2023-06-22T06:20:00;22.9;72
77700;DHT22;66867;42.658;23.320;2023-06-22T06:21:00;23.0;72
77700;DHT22;66867;42.658;23.320;2023-06-22T06:22:00;23.0;72
77700;DHT22;66867;42.658;23.320;2023-06-22T06:23:00;23.1;72
77700;DHT22;66867;42.658;23.320;2023-06-22T06:24:00;23.1;72
77700;DHT22;66867;42.658;23.320;2023-06-22T06:25:00;23.1;72
77700;DHT22;66867;42.658;23.320;2023-06-22T06:26:00;23.2;72
77700;DHT22;66867;42.658;23.320;2023-06-22T06:27:00;23.2;73
77700;DHT22;66867;42.658;23.320;2023-06-22T06:28:00;23.3;73
77700;DHT22;66867;42.658;23.320;2023-06-22T06:29:00;23.3;72
77700;DHT22;66867;42.658;23.320;2023-06-22T06:30:00;23.4;73
77700;DHT22;66867;42.658;23.320;2023-06-22T06:31:00;23.4;73
77700;DHT22;66867;42.658;23.320;2023-06-22T06:32:00;23.4;72
77700;DHT22;66867;42.658;23.320;2023-06-22T06:33:00;23.5;72
77700;DHT22;66867;42.658;23.320;2023-06-22T06:34:00;23.5;72
77700;DHT22;66867;42.658;23.320;2023-06-22T06:35:00;23.5;71
77700;DHT22;66867;42.658;23.320;2023-06-22T06:36:00;23.5;71
77700;DHT22;66867;42.658;23.320;2023-06-22T06:37:00;23.6;71
77700;DHT22;66867;42.658;23.320;2023-06-22T06:38:00;23.6;71
77700;DHT22;66867;42.658;23.320;2023-06-22T06:39:00;23.6;71
77700;DHT22;66867;42.658;23.320;2023-06-22T06:40:00;23.7;70
77700;DHT22;66867;42.658;23.320;2023-06-22T06:41:00;23.7;71
77700;DHT22;66867;42.658;23.320;2023-06-22T06:42:00;23.8;71
77700;DHT22;66867;42.658;23.320;2023-06-22T06:43:00;23.8;70
77700;DHT22;66867;42.658;23.320;2023-06-22T06:44:00;23.8;71
77700;DHT22;66867;42.658;23.320;2023-06-22T06:45:00;23.9;70
77700;DHT22;66867;42.658;23.320;2023-06-22T06:46:00;23.9;70
77700;DHT22;66867;42.658;23.320;2023-06-22T06:47:00;24.0;70
77700;DHT22;66867;42.658;23.320;2023-06-22T06:48:00;24.0;70
77700;DHT22;66867;42.658;23.320;2023-06-22T06:49:00;24.1;70
77700;DHT22;66867;42.658;23.320;2023-06-22T06:50:00;24.1;69
77700;DHT22;66867;42.658;23.320;2023-06-22T06:51:00;24.1;69
77700;DHT22;66867;42.658;23.320;2023-06-22T06:52:00;24.1;69
77700;DHT22;66867;42.658;23.320;2023-06-22T06:53:00;24.1;69
77700;DHT22;66867;42.658;23.320;2023-06-22T06:54:00;24.1;69
77700;DHT22;66867;42.658;23.320;2023-06-22T06:55:00;24.2;70
77700;DHT22;66867;42.658;23.320;2023-06-22T06:56:00;24.2;69